createdAt,value
2022-11-23T00:01:25.142Z,5.13
2022-11-23T00:03:56.529Z,6.57
2022-11-23T00:06:24.994Z,5.77
2022-11-23T00:08:52.788Z,5.63
2022-11-23T00:11:21.555Z,6.53
2022-11-23T00:13:49.375Z,5.80
2022-11-23T00:16:19.030Z,5.87
2022-11-23T00:18:46.637Z,5.67
2022-11-23T00:21:16.572Z,6.13
2022-11-23T00:23:45.374Z,5.43
2022-11-23T00:26:13.774Z,5.70
2022-11-23T00:28:42.417Z,5.80
2022-11-23T00:31:12.984Z,5.93
2022-11-23T00:33:40.484Z,5.33
2022-11-23T00:36:16.696Z,5.50
2022-11-23T00:38:45.061Z,5.10
2022-11-23T00:41:18.018Z,4.40
2022-11-23T00:43:45.391Z,4.57
2022-11-23T00:46:23.136Z,4.47
2022-11-23T00:48:52.306Z,4.47
2022-11-23T00:51:22.589Z,4.00
2022-11-23T00:53:51.381Z,4.10
2022-11-23T00:56:19.388Z,3.83
2022-11-23T00:58:50.926Z,4.67
2022-11-23T01:01:20.167Z,5.23
2022-11-23T01:03:50.167Z,5.50
2022-11-23T01:06:32.578Z,5.43
2022-11-23T01:09:04.428Z,4.80
2022-11-23T01:11:32.931Z,4.67
2022-11-23T01:14:00.070Z,5.43
2022-11-23T01:16:32.744Z,4.87
2022-11-23T01:19:02.230Z,4.60
2022-11-23T01:21:30.724Z,5.40
2022-11-23T01:23:58.367Z,4.40
2022-11-23T01:26:26.459Z,5.07
2022-11-23T01:28:53.896Z,5.13
2022-11-23T01:31:23.287Z,5.20
2022-11-23T01:33:55.082Z,5.60
2022-11-23T01:36:25.029Z,5.30
2022-11-23T01:38:52.470Z,4.97
2022-11-23T01:41:25.902Z,5.73
2022-11-23T01:43:53.993Z,5.50
2022-11-23T01:46:21.883Z,5.20
2022-11-23T01:49:02.017Z,5.50
2022-11-23T01:51:38.997Z,5.43
2022-11-23T01:54:12.471Z,5.03
2022-11-23T01:56:53.757Z,5.30
2022-11-23T01:59:23.643Z,5.43
2022-11-23T02:01:50.870Z,4.80
2022-11-23T02:04:25.314Z,5.17
2022-11-23T02:06:53.242Z,4.73
2022-11-23T02:09:21.759Z,4.77
2022-11-23T02:11:49.131Z,4.90
2022-11-23T02:14:20.462Z,5.07
2022-11-23T02:16:50.853Z,4.50
2022-11-23T02:19:57.443Z,4.33
2022-11-23T02:22:43.748Z,4.10
2022-11-23T02:25:27.293Z,3.87
2022-11-23T02:27:54.900Z,3.87
2022-11-23T02:30:22.362Z,4.57
2022-11-23T02:32:49.531Z,3.90
2022-11-23T02:35:16.746Z,4.17
2022-11-23T02:37:44.520Z,3.67
2022-11-23T02:40:34.468Z,4.57
2022-11-23T02:45:59.702Z,3.37
2022-11-23T02:48:27.039Z,3.77
2022-11-23T02:50:54.461Z,3.80
2022-11-23T02:53:21.759Z,3.60
2022-11-23T02:55:49.065Z,3.60
2022-11-23T02:58:16.465Z,3.60
2022-11-23T03:00:43.714Z,3.50
2022-11-23T03:03:10.944Z,3.63
2022-11-23T03:05:38.092Z,4.00
2022-11-23T03:08:05.791Z,3.33
2022-11-23T03:10:32.958Z,3.40
2022-11-23T03:13:00.263Z,3.83
2022-11-23T03:15:28.634Z,3.77
2022-11-23T03:17:57.458Z,3.70
2022-11-23T03:20:25.484Z,3.90
2022-11-23T03:22:52.685Z,3.37
2022-11-23T03:25:19.787Z,4.23
2022-11-23T03:27:47.564Z,3.37
2022-11-23T03:30:15.214Z,3.60
2022-11-23T03:32:42.361Z,4.10
2022-11-23T03:35:10.085Z,4.33
2022-11-23T03:37:37.377Z,3.60
2022-11-23T03:40:04.753Z,3.67
2022-11-23T03:42:32.085Z,3.57
2022-11-23T03:44:59.494Z,3.73
2022-11-23T03:47:26.797Z,3.97
2022-11-23T03:49:54.064Z,3.93
2022-11-23T03:52:21.274Z,3.70
2022-11-23T03:54:48.539Z,3.20
2022-11-23T03:57:15.787Z,3.60
2022-11-23T03:59:43.187Z,3.27
2022-11-23T04:02:10.987Z,3.43
2022-11-23T04:04:38.374Z,3.73
2022-11-23T04:07:05.604Z,3.43
2022-11-23T04:09:33.055Z,3.57
2022-11-23T04:12:00.529Z,3.80
2022-11-23T04:14:27.897Z,3.40
2022-11-23T04:16:55.057Z,3.20
2022-11-23T04:19:22.231Z,3.43
2022-11-23T04:21:49.409Z,3.80
2022-11-23T04:24:16.591Z,3.57
2022-11-23T04:26:44.291Z,3.70
2022-11-23T04:29:11.629Z,3.80
2022-11-23T04:31:38.743Z,3.93
2022-11-23T04:34:06.280Z,4.03
2022-11-23T04:36:33.572Z,3.23
2022-11-23T04:39:00.768Z,3.80
2022-11-23T04:41:28.000Z,3.40
2022-11-23T04:43:55.405Z,4.10
2022-11-23T04:46:22.643Z,3.13
2022-11-23T04:48:50.026Z,3.60
2022-11-23T04:51:17.293Z,3.00
2022-11-23T04:53:44.420Z,3.40
2022-11-23T04:56:11.705Z,3.33
2022-11-23T04:58:39.322Z,3.30
2022-11-23T05:01:06.765Z,3.47
2022-11-23T05:03:37.488Z,3.30
2022-11-23T05:06:05.518Z,3.57
2022-11-23T05:08:33.049Z,3.43
2022-11-23T05:11:00.221Z,3.17
2022-11-23T05:13:27.372Z,3.20
2022-11-23T05:15:54.557Z,2.90
2022-11-23T05:18:21.914Z,3.23
2022-11-23T05:20:49.020Z,2.97
2022-11-23T05:23:16.260Z,3.00
2022-11-23T05:25:43.442Z,3.10
2022-11-23T05:28:39.078Z,3.00
2022-11-23T05:31:05.634Z,3.13
2022-11-23T05:33:32.812Z,3.13
2022-11-23T05:36:00.191Z,3.17
2022-11-23T05:38:27.889Z,3.30
2022-11-23T05:40:55.043Z,3.20
2022-11-23T05:43:22.224Z,2.97
2022-11-23T05:45:49.938Z,3.10
2022-11-23T05:48:17.556Z,3.30
2022-11-23T05:50:44.802Z,3.43
2022-11-23T05:53:11.966Z,3.37
2022-11-23T05:55:39.308Z,3.30
2022-11-23T05:58:06.583Z,3.50
2022-11-23T06:00:33.869Z,3.63
2022-11-23T06:03:01.998Z,2.90
2022-11-23T06:05:29.696Z,3.40
2022-11-23T06:07:57.109Z,2.90
2022-11-23T06:10:24.743Z,3.00
2022-11-23T06:12:53.134Z,2.87
2022-11-23T06:15:20.484Z,3.00
2022-11-23T06:17:47.741Z,2.93
2022-11-23T06:20:15.210Z,2.90
2022-11-23T06:22:42.449Z,3.37
2022-11-23T06:25:10.032Z,2.93
2022-11-23T06:27:37.203Z,3.40
2022-11-23T06:30:05.090Z,3.00
2022-11-23T06:32:32.467Z,3.10
2022-11-23T06:35:01.267Z,3.20
2022-11-23T06:37:28.703Z,2.97
2022-11-23T06:39:55.935Z,2.90
2022-11-23T06:42:38.368Z,3.00
2022-11-23T06:45:07.615Z,3.07
2022-11-23T06:47:34.885Z,3.37
2022-11-23T06:50:02.086Z,2.80
2022-11-23T06:52:29.267Z,2.97
2022-11-23T06:54:56.586Z,3.30
2022-11-23T06:57:23.976Z,3.00
2022-11-23T06:59:51.220Z,3.27
2022-11-23T07:02:18.462Z,2.90
2022-11-23T07:04:45.726Z,2.77
2022-11-23T07:07:13.000Z,2.97
2022-11-23T07:09:40.173Z,3.30
2022-11-23T07:12:07.730Z,3.17
2022-11-23T07:14:34.914Z,3.00
2022-11-23T07:17:02.079Z,2.80
2022-11-23T07:19:29.591Z,2.97
2022-11-23T07:21:56.910Z,2.93
2022-11-23T07:24:24.206Z,2.87
2022-11-23T07:26:51.823Z,2.80
2022-11-23T07:29:19.028Z,2.47
2022-11-23T07:31:46.363Z,2.30
2022-11-23T07:34:13.597Z,2.90
2022-11-23T07:36:40.743Z,2.77
2022-11-23T07:39:08.091Z,2.70
2022-11-23T07:41:35.322Z,3.00
2022-11-23T07:44:02.823Z,2.60
2022-11-23T07:46:29.992Z,2.40
2022-11-23T07:49:01.951Z,2.50
2022-11-23T07:51:30.078Z,2.47
2022-11-23T07:53:57.640Z,2.50
2022-11-23T07:56:25.146Z,2.47
2022-11-23T07:58:52.567Z,2.37
2022-11-23T08:01:20.237Z,2.50
2022-11-23T08:03:48.716Z,2.37
2022-11-23T08:06:16.744Z,2.10
2022-11-23T08:08:44.091Z,2.30
2022-11-23T08:11:14.867Z,2.40
2022-11-23T08:13:42.122Z,2.43
2022-11-23T08:16:09.487Z,2.37
2022-11-23T08:18:36.877Z,2.63
2022-11-23T08:21:04.815Z,2.20
2022-11-23T08:23:32.029Z,2.20
2022-11-23T08:25:59.439Z,2.40
2022-11-23T08:28:26.720Z,2.40
2022-11-23T08:30:53.953Z,2.40
2022-11-23T08:33:21.161Z,2.00
2022-11-23T08:35:48.447Z,2.30
2022-11-23T08:38:15.724Z,2.23
2022-11-23T08:40:42.935Z,2.03
2022-11-23T08:43:10.226Z,2.20
2022-11-23T08:45:37.376Z,2.20
2022-11-23T08:48:05.270Z,1.87
2022-11-23T08:50:34.579Z,2.33
2022-11-23T08:53:01.866Z,2.23
2022-11-23T08:55:29.836Z,1.90
2022-11-23T08:57:58.603Z,2.10
2022-11-23T09:00:26.773Z,2.17
2022-11-23T09:02:54.787Z,2.40
2022-11-23T09:05:22.104Z,2.20
2022-11-23T09:07:49.422Z,2.10
2022-11-23T09:10:19.140Z,1.90
2022-11-23T09:12:47.998Z,2.00
2022-11-23T09:15:15.581Z,2.03
2022-11-23T09:17:43.334Z,1.97
2022-11-23T09:20:11.541Z,2.00
2022-11-23T09:22:38.853Z,1.87
2022-11-23T09:25:07.319Z,2.07
2022-11-23T09:27:34.673Z,1.97
2022-11-23T09:30:02.089Z,2.10
2022-11-23T09:32:29.331Z,1.97
2022-11-23T09:34:56.585Z,1.93
2022-11-23T09:37:23.888Z,2.00
2022-11-23T09:39:51.073Z,1.90
2022-11-23T09:42:21.252Z,2.27
2022-11-23T09:45:00.129Z,2.23
2022-11-23T09:48:09.904Z,1.90
2022-11-23T09:50:53.340Z,2.10
2022-11-23T09:53:46.133Z,1.80
2022-11-23T09:56:28.390Z,2.10
2022-11-23T09:59:00.496Z,2.00
2022-11-23T10:01:28.144Z,2.20
2022-11-23T10:03:55.516Z,2.40
2022-11-23T10:06:31.754Z,2.30
2022-11-23T10:09:12.574Z,2.30
2022-11-23T10:11:49.190Z,2.30
2022-11-23T10:14:34.537Z,2.50
2022-11-23T10:17:23.835Z,2.27
2022-11-23T10:20:17.200Z,2.10
2022-11-23T10:22:58.891Z,2.63
2022-11-23T10:25:37.539Z,2.40
2022-11-23T10:28:21.249Z,2.20
2022-11-23T10:30:55.437Z,2.30
2022-11-23T10:33:36.605Z,2.10
2022-11-23T10:36:03.945Z,2.00
2022-11-23T10:38:32.859Z,2.20
2022-11-23T10:41:12.936Z,2.20
2022-11-23T10:43:47.527Z,2.40
2022-11-23T10:46:29.381Z,2.23
2022-11-23T10:49:23.539Z,2.30
2022-11-23T10:52:07.230Z,2.60
2022-11-23T10:54:34.818Z,2.13
2022-11-23T10:57:21.475Z,2.27
2022-11-23T11:00:14.102Z,1.93
2022-11-23T11:02:55.432Z,2.20
2022-11-23T11:05:53.477Z,2.03
2022-11-23T11:08:18.235Z,2.30
2022-11-23T11:11:11.611Z,2.30
2022-11-23T11:13:46.514Z,2.13
2022-11-23T11:16:30.977Z,2.60
2022-11-23T11:18:59.486Z,2.30
2022-11-23T11:21:35.099Z,2.43
2022-11-23T11:24:07.564Z,2.37
2022-11-23T11:26:36.191Z,2.30
2022-11-23T11:29:06.928Z,2.50
2022-11-23T11:31:57.428Z,2.20
2022-11-23T11:34:46.923Z,2.40
2022-11-23T11:37:35.756Z,2.27
2022-11-23T11:40:27.862Z,2.60
2022-11-23T11:43:01.660Z,2.30
2022-11-23T11:45:34.412Z,1.90
2022-11-23T11:48:08.736Z,2.70
2022-11-23T11:50:44.643Z,2.50
2022-11-23T11:53:17.566Z,2.63
2022-11-23T11:56:04.508Z,2.90
2022-11-23T11:58:33.702Z,2.80
2022-11-23T12:01:13.816Z,2.70
2022-11-23T12:03:47.667Z,2.73
2022-11-23T12:06:26.673Z,2.43
2022-11-23T12:09:06.068Z,2.70
2022-11-23T12:11:33.429Z,2.40
2022-11-23T12:14:03.451Z,2.60
2022-11-23T12:16:39.719Z,2.67
2022-11-23T12:19:10.036Z,2.73
2022-11-23T12:22:12.434Z,2.50
2022-11-23T12:25:17.571Z,2.90
2022-11-23T12:28:22.155Z,2.37
2022-11-23T12:31:11.556Z,2.73
2022-11-23T12:34:00.083Z,2.90
2022-11-23T12:36:36.120Z,2.80
2022-11-23T12:39:20.658Z,2.80
2022-11-23T12:41:50.898Z,2.63
2022-11-23T12:44:49.747Z,3.23
2022-11-23T12:47:54.790Z,2.80
2022-11-23T12:50:45.594Z,2.47
2022-11-23T12:53:19.210Z,2.70
2022-11-23T12:56:03.567Z,2.67
2022-11-23T12:58:33.549Z,3.00
2022-11-23T13:01:15.354Z,2.97
2022-11-23T13:03:51.809Z,2.87
2022-11-23T13:07:05.529Z,2.90
2022-11-23T13:09:50.530Z,2.97
2022-11-23T13:12:40.804Z,3.00
2022-11-23T13:15:18.688Z,3.00
2022-11-23T13:18:31.643Z,3.20
2022-11-23T13:21:30.806Z,3.27
2022-11-23T13:23:58.195Z,3.07
2022-11-23T13:26:28.385Z,3.33
2022-11-23T13:28:58.696Z,3.17
2022-11-23T13:31:31.818Z,3.27
2022-11-23T13:34:01.500Z,3.40
2022-11-23T13:39:46.972Z,3.13
2022-11-23T13:42:14.709Z,3.10
2022-11-23T13:44:42.031Z,3.30
2022-11-23T13:47:16.340Z,2.80
2022-11-23T13:50:07.584Z,2.43
2022-11-23T13:52:36.775Z,2.73
2022-11-23T13:55:21.632Z,2.70
2022-11-23T13:58:27.596Z,2.63
2022-11-23T14:00:59.708Z,2.80
2022-11-23T14:03:48.628Z,3.07
2022-11-23T14:06:24.228Z,3.20
2022-11-23T14:09:28.280Z,2.83
2022-11-23T14:12:16.264Z,2.80
2022-11-23T14:14:43.389Z,3.10
2022-11-23T14:17:27.803Z,2.67
2022-11-23T14:20:11.977Z,2.93
2022-11-23T14:23:06.435Z,2.77
2022-11-23T14:25:51.337Z,2.60
2022-11-23T14:28:41.499Z,2.73
2022-11-23T14:31:50.570Z,2.70
2022-11-23T14:34:25.858Z,2.43
2022-11-23T14:37:16.034Z,2.60
2022-11-23T14:40:27.616Z,2.73
2022-11-23T14:42:57.710Z,2.87
2022-11-23T14:45:29.910Z,2.90
2022-11-23T14:47:57.312Z,2.43
2022-11-23T14:50:29.627Z,2.30
2022-11-23T14:52:59.504Z,2.57
2022-11-23T14:55:30.842Z,2.83
2022-11-23T14:58:05.053Z,2.67
2022-11-23T15:00:39.416Z,2.60
2022-11-23T15:06:18.692Z,2.30
2022-11-23T15:09:06.889Z,2.27
2022-11-23T15:11:37.379Z,2.27
2022-11-23T15:14:18.821Z,2.73
2022-11-23T15:16:46.245Z,2.30
2022-11-23T15:19:28.810Z,2.07
2022-11-23T15:21:57.519Z,2.13
2022-11-23T15:24:26.961Z,1.93
2022-11-23T15:27:06.611Z,2.00
2022-11-23T15:29:39.564Z,1.83
2022-11-23T15:32:33.152Z,2.47
2022-11-23T15:35:06.883Z,1.93
2022-11-23T15:37:47.609Z,1.90
2022-11-23T15:40:17.049Z,1.90
2022-11-23T15:42:46.865Z,2.10
2022-11-23T15:45:36.954Z,1.80
2022-11-23T15:48:11.252Z,1.90
2022-11-23T15:50:59.639Z,1.90
2022-11-23T15:53:47.625Z,1.93
2022-11-23T15:56:35.152Z,1.70
2022-11-23T15:59:05.828Z,1.67
2022-11-23T16:01:33.496Z,1.90
2022-11-23T16:04:04.041Z,1.57
2022-11-23T16:06:40.052Z,1.43
2022-11-23T16:09:53.290Z,1.50
2022-11-23T16:12:29.730Z,1.77
2022-11-23T16:14:59.603Z,1.93
2022-11-23T16:17:28.977Z,1.70
2022-11-23T16:19:58.815Z,1.80
2022-11-23T16:22:33.316Z,1.87
2022-11-23T16:25:06.939Z,1.77
2022-11-23T16:27:35.788Z,1.93
2022-11-23T16:30:05.017Z,1.80
2022-11-23T16:32:32.520Z,2.03
2022-11-23T16:35:20.425Z,2.00
2022-11-23T16:37:47.931Z,2.00
2022-11-23T16:40:15.664Z,2.00
2022-11-23T16:42:43.705Z,2.07
2022-11-23T16:45:11.557Z,1.80
2022-11-23T16:47:53.857Z,1.80
2022-11-23T16:50:22.475Z,2.00
2022-11-23T16:52:50.414Z,1.70
2022-11-23T16:55:17.670Z,1.77
2022-11-23T16:57:45.512Z,1.70
2022-11-23T17:00:21.850Z,1.97
2022-11-23T17:02:49.107Z,1.67
2022-11-23T17:05:18.193Z,1.60
2022-11-23T17:07:46.316Z,1.80
2022-11-23T17:10:14.860Z,2.00
2022-11-23T17:12:51.144Z,1.50
2022-11-23T17:15:21.114Z,1.90
2022-11-23T17:17:48.499Z,1.70
2022-11-23T17:20:18.111Z,2.13
2022-11-23T17:22:45.674Z,1.70
2022-11-23T17:25:15.274Z,2.13
2022-11-23T17:27:43.893Z,2.90
2022-11-23T17:30:16.958Z,2.60
2022-11-23T17:32:44.373Z,2.70
2022-11-23T17:35:11.577Z,3.23
2022-11-23T17:37:39.079Z,4.40
2022-11-23T17:40:13.312Z,2.67
2022-11-23T17:42:40.814Z,2.37
2022-11-23T17:45:10.824Z,2.13
2022-11-23T17:47:42.376Z,2.17
2022-11-23T17:50:17.830Z,2.03
2022-11-23T17:52:46.554Z,2.27
2022-11-23T17:55:15.323Z,2.40
2022-11-23T17:57:43.168Z,2.10
2022-11-23T18:00:22.761Z,1.97
2022-11-23T18:02:50.615Z,1.90
2022-11-23T18:05:21.573Z,3.60
2022-11-23T18:07:51.091Z,1.90
2022-11-23T18:10:19.002Z,1.83
2022-11-23T18:12:46.858Z,2.00
2022-11-23T18:15:18.038Z,2.17
2022-11-23T18:17:45.867Z,2.00
2022-11-23T18:20:13.697Z,1.80
2022-11-23T18:22:41.266Z,1.90
2022-11-23T18:25:09.163Z,1.77
2022-11-23T18:27:36.380Z,1.60
2022-11-23T18:30:04.157Z,1.60
2022-11-23T18:32:31.339Z,1.73
2022-11-23T18:34:58.500Z,1.50
2022-11-23T18:37:25.951Z,1.83
2022-11-23T18:39:53.304Z,1.83
2022-11-23T18:42:21.570Z,1.70
2022-11-23T18:44:48.757Z,1.77
2022-11-23T18:47:16.741Z,1.97
2022-11-23T18:49:44.677Z,1.60
2022-11-23T18:52:14.666Z,1.47
2022-11-23T18:54:42.116Z,1.30
2022-11-23T18:57:18.741Z,1.60
2022-11-23T18:59:57.855Z,1.30
2022-11-23T19:02:29.009Z,1.50
2022-11-23T19:05:01.127Z,1.60
2022-11-23T19:07:32.541Z,1.47
2022-11-23T19:10:02.257Z,1.50
2022-11-23T19:12:35.051Z,1.40
2022-11-23T19:15:05.398Z,1.27
2022-11-23T19:17:34.065Z,1.20
2022-11-23T19:20:01.566Z,1.53
2022-11-23T19:22:30.831Z,1.40
2022-11-23T19:24:58.276Z,1.30
2022-11-23T19:27:25.767Z,1.30
2022-11-23T19:29:52.963Z,1.50
2022-11-23T19:32:20.280Z,1.50
2022-11-23T19:34:47.852Z,1.43
2022-11-23T19:37:15.285Z,1.30
2022-11-23T19:39:42.596Z,1.20
2022-11-23T19:42:09.858Z,1.00
2022-11-23T19:44:37.155Z,1.20
2022-11-23T19:47:09.957Z,1.20
2022-11-23T19:49:41.077Z,1.03
2022-11-23T19:52:08.293Z,1.53
2022-11-23T19:54:35.651Z,1.23
2022-11-23T19:57:03.344Z,1.10
2022-11-23T19:59:31.012Z,1.43
2022-11-23T20:01:58.803Z,1.40
2022-11-23T20:04:26.056Z,1.47
2022-11-23T20:06:53.331Z,1.50
2022-11-23T20:09:21.225Z,1.60
2022-11-23T20:11:51.264Z,1.50
2022-11-23T20:14:19.595Z,1.90
2022-11-23T20:16:48.081Z,1.90
2022-11-23T20:19:15.443Z,1.63
2022-11-23T20:21:42.842Z,1.70
2022-11-23T20:24:12.916Z,1.67
2022-11-23T20:26:41.447Z,1.57
2022-11-23T20:29:09.506Z,1.97
2022-11-23T20:31:37.984Z,1.70
2022-11-23T20:34:08.189Z,1.57
2022-11-23T20:36:38.545Z,1.73
2022-11-23T20:39:09.948Z,1.70
2022-11-23T20:41:38.332Z,1.40
2022-11-23T20:44:10.270Z,1.47
2022-11-23T20:47:00.524Z,1.80
2022-11-23T20:49:24.782Z,1.40
2022-11-23T20:51:51.910Z,1.63
2022-11-23T20:54:19.165Z,1.60
2022-11-23T20:56:46.416Z,1.97
2022-11-23T20:59:14.150Z,1.83
2022-11-23T21:01:41.382Z,1.90
2022-11-23T21:04:09.323Z,2.10
2022-11-23T21:06:39.484Z,2.17
2022-11-23T21:09:09.076Z,1.60
2022-11-23T21:11:55.374Z,2.33
2022-11-23T21:14:27.655Z,1.63
2022-11-23T21:16:58.820Z,1.83
2022-11-23T21:19:31.760Z,1.33
2022-11-23T21:22:03.563Z,1.57
2022-11-23T21:24:31.029Z,1.20
2022-11-23T21:26:58.634Z,1.50
2022-11-23T21:29:26.375Z,1.20
2022-11-23T21:31:53.960Z,1.63
2022-11-23T21:34:26.453Z,1.30
2022-11-23T21:36:55.597Z,1.30
2022-11-23T21:39:23.578Z,1.23
2022-11-23T21:41:53.542Z,1.37
2022-11-23T21:44:24.945Z,1.40
2022-11-23T21:46:52.505Z,1.27
2022-11-23T21:49:19.758Z,1.60
2022-11-23T21:51:47.845Z,1.67
2022-11-23T21:54:16.131Z,4.60
2022-11-23T21:56:45.547Z,1.77
2022-11-23T21:59:13.513Z,1.73
2022-11-23T22:01:42.073Z,1.80
2022-11-23T22:04:15.681Z,1.50
2022-11-23T22:06:45.476Z,1.50
2022-11-23T22:09:13.751Z,1.60
2022-11-23T22:11:43.243Z,1.60
2022-11-23T22:14:16.022Z,1.10
2022-11-23T22:16:49.931Z,1.50
2022-11-23T22:19:18.048Z,1.40
2022-11-23T22:21:46.855Z,1.40
2022-11-23T22:24:19.459Z,1.57
2022-11-23T22:26:47.977Z,1.40
2022-11-23T22:29:15.863Z,1.37
2022-11-23T22:31:44.056Z,1.40
2022-11-23T22:34:13.136Z,1.70
2022-11-23T22:36:40.806Z,1.37
2022-11-23T22:39:09.051Z,1.30
2022-11-23T22:41:37.684Z,1.40
2022-11-23T22:44:07.806Z,1.30
2022-11-23T22:46:35.355Z,1.00
2022-11-23T22:49:03.264Z,1.37
2022-11-23T22:51:30.878Z,1.10
2022-11-23T22:54:00.388Z,1.27
2022-11-23T22:56:29.295Z,0.90
2022-11-23T22:58:56.802Z,1.10
2022-11-23T23:01:29.832Z,0.93
2022-11-23T23:03:59.324Z,1.20
2022-11-23T23:06:29.556Z,1.03
2022-11-23T23:08:58.818Z,1.13
2022-11-23T23:11:28.492Z,0.90
2022-11-23T23:13:56.398Z,1.20
2022-11-23T23:16:24.216Z,1.30
2022-11-23T23:18:51.722Z,1.40
2022-11-23T23:21:21.159Z,1.00
2022-11-23T23:23:53.895Z,1.10
2022-11-23T23:26:24.099Z,1.07
2022-11-23T23:28:56.195Z,1.20
2022-11-23T23:31:23.706Z,1.30
2022-11-23T23:33:51.246Z,1.17
2022-11-23T23:36:21.111Z,1.10
2022-11-23T23:38:49.029Z,1.37
2022-11-23T23:41:16.478Z,1.20
2022-11-23T23:43:43.912Z,1.27
2022-11-23T23:46:13.725Z,1.20
2022-11-23T23:48:41.634Z,1.10
2022-11-23T23:51:11.598Z,1.13
2022-11-23T23:53:39.731Z,1.10
2022-11-23T23:56:12.441Z,1.00
2022-11-23T23:58:39.877Z,1.27
